createdAt,value
2018-11-03T00:01:37.714Z,64.30
2018-11-03T00:04:06.000Z,64.10
2018-11-03T00:06:34.261Z,64.10
2018-11-03T00:09:02.616Z,64.10
2018-11-03T00:11:30.949Z,64.10
2018-11-03T00:14:00.906Z,64.00
2018-11-03T00:16:32.767Z,64.80
2018-11-03T00:19:04.723Z,64.00
2018-11-03T00:21:37.309Z,63.90
2018-11-03T00:24:05.962Z,64.90
2018-11-03T00:26:34.280Z,64.80
2018-11-03T00:29:02.645Z,64.80
2018-11-03T00:31:30.950Z,64.60
2018-11-03T00:33:59.262Z,64.80
2018-11-03T00:36:27.494Z,64.80
2018-11-03T00:38:55.903Z,65.10
2018-11-03T00:41:24.301Z,65.10
2018-11-03T00:43:52.644Z,65.00
2018-11-03T00:46:20.907Z,64.90
2018-11-03T00:48:49.199Z,65.10
2018-11-03T00:51:17.469Z,65.00
2018-11-03T00:53:45.810Z,65.00
2018-11-03T00:56:14.144Z,65.00
2018-11-03T00:58:42.420Z,65.80
2018-11-03T01:01:11.742Z,65.00
2018-11-03T01:03:40.121Z,64.80
2018-11-03T01:06:08.469Z,64.70
2018-11-03T01:08:36.739Z,64.70
2018-11-03T01:11:05.145Z,64.70
2018-11-03T01:13:33.440Z,64.60
2018-11-03T01:16:01.779Z,64.70
2018-11-03T01:18:30.076Z,65.30
2018-11-03T01:20:58.331Z,64.70
2018-11-03T01:23:26.702Z,64.60
2018-11-03T01:25:55.027Z,64.70
2018-11-03T01:28:23.430Z,64.80
2018-11-03T01:30:51.736Z,64.80
2018-11-03T01:33:20.007Z,64.80
2018-11-03T01:35:48.325Z,64.80
2018-11-03T01:38:16.560Z,64.80
2018-11-03T01:40:44.897Z,64.80
2018-11-03T01:43:13.229Z,64.80
2018-11-03T01:45:41.526Z,64.90
2018-11-03T01:48:09.765Z,64.90
2018-11-03T01:50:38.058Z,64.90
2018-11-03T01:53:06.416Z,64.80
2018-11-03T01:55:34.732Z,65.00
2018-11-03T01:58:03.119Z,65.00
2018-11-03T02:00:33.092Z,65.10
2018-11-03T02:03:01.396Z,65.10
2018-11-03T02:05:29.675Z,65.20
2018-11-03T02:07:57.969Z,65.20
2018-11-03T02:10:26.246Z,65.10
2018-11-03T02:12:54.609Z,66.30
2018-11-03T02:15:22.964Z,65.40
2018-11-03T02:17:51.264Z,65.50
2018-11-03T02:20:19.534Z,65.60
2018-11-03T02:22:47.804Z,65.90
2018-11-03T02:25:16.084Z,66.00
2018-11-03T02:27:44.361Z,66.10
2018-11-03T02:30:13.006Z,66.10
2018-11-03T02:32:41.414Z,66.00
2018-11-03T02:35:10.889Z,66.00
2018-11-03T02:37:39.670Z,65.90
2018-11-03T02:40:09.777Z,65.80
2018-11-03T02:42:38.162Z,65.70
2018-11-03T02:45:07.665Z,65.80
2018-11-03T02:47:36.286Z,65.70
2018-11-03T02:50:05.791Z,65.50
2018-11-03T02:52:34.105Z,65.50
2018-11-03T02:55:02.402Z,65.40
2018-11-03T02:57:30.741Z,65.40
2018-11-03T02:59:59.026Z,65.40
2018-11-03T03:02:27.422Z,65.20
2018-11-03T03:04:55.685Z,65.20
2018-11-03T03:07:24.248Z,65.60
2018-11-03T03:09:52.535Z,65.20
2018-11-03T03:12:20.944Z,65.30
2018-11-03T03:14:49.597Z,65.50
2018-11-03T03:17:17.897Z,65.30
2018-11-03T03:19:46.144Z,65.30
2018-11-03T03:22:14.472Z,65.40
2018-11-03T03:24:42.813Z,65.50
2018-11-03T03:27:11.101Z,65.40
2018-11-03T03:29:39.433Z,65.50
2018-11-03T03:32:07.853Z,65.50
2018-11-03T03:34:36.462Z,65.50
2018-11-03T03:37:05.133Z,65.40
2018-11-03T03:39:33.378Z,65.50
2018-11-03T03:42:01.817Z,65.30
2018-11-03T03:44:30.141Z,65.20
2018-11-03T03:46:58.446Z,65.30
2018-11-03T03:49:26.760Z,65.10
2018-11-03T03:51:55.096Z,65.10
2018-11-03T03:54:23.424Z,65.00
2018-11-03T03:56:51.772Z,65.00
2018-11-03T03:59:20.024Z,65.70
2018-11-03T04:01:48.298Z,64.90
2018-11-03T04:04:16.578Z,64.90
2018-11-03T04:06:44.848Z,64.90
2018-11-03T04:09:13.122Z,65.00
2018-11-03T04:11:41.478Z,65.00
2018-11-03T04:17:12.445Z,64.20
2018-11-03T04:19:40.809Z,65.00
2018-11-03T04:22:09.186Z,65.00
2018-11-03T04:24:37.423Z,65.00
2018-11-03T04:27:05.950Z,65.00
2018-11-03T04:29:34.213Z,65.00
2018-11-03T04:32:02.497Z,65.70
2018-11-03T04:34:30.767Z,64.80
2018-11-03T04:36:59.055Z,64.80
2018-11-03T04:39:27.331Z,64.70
2018-11-03T04:41:56.730Z,64.80
2018-11-03T04:44:24.997Z,64.90
2018-11-03T04:46:53.447Z,64.70
2018-11-03T04:49:21.762Z,64.80
2018-11-03T04:51:50.040Z,64.80
2018-11-03T04:54:18.284Z,64.70
2018-11-03T04:56:47.658Z,65.10
2018-11-03T04:59:15.992Z,64.70
2018-11-03T05:01:45.301Z,64.70
2018-11-03T05:04:15.112Z,64.60
2018-11-03T05:06:43.386Z,64.70
2018-11-03T05:09:11.742Z,64.60
2018-11-03T05:11:40.165Z,64.60
2018-11-03T05:14:09.401Z,64.70
2018-11-03T05:16:38.039Z,64.80
2018-11-03T05:19:06.957Z,64.70
2018-11-03T05:21:35.699Z,64.90
2018-11-03T05:24:05.004Z,64.70
2018-11-03T05:26:33.272Z,64.70
2018-11-03T05:29:01.583Z,64.70
2018-11-03T05:31:29.977Z,64.60
2018-11-03T05:33:58.320Z,64.50
2018-11-03T05:36:26.600Z,64.70
2018-11-03T05:38:54.879Z,65.50
2018-11-03T05:41:24.161Z,64.90
2018-11-03T05:43:52.449Z,65.20
2018-11-03T05:46:20.755Z,65.10
2018-11-03T05:48:48.990Z,65.00
2018-11-03T05:51:18.285Z,65.00
2018-11-03T05:53:46.573Z,65.00
2018-11-03T05:56:14.841Z,65.00
2018-11-03T05:58:43.155Z,65.10
2018-11-03T06:01:11.398Z,65.10
2018-11-03T06:03:39.702Z,65.10
2018-11-03T06:06:08.100Z,65.70
2018-11-03T06:08:36.488Z,65.00
2018-11-03T06:11:05.217Z,65.00
2018-11-03T06:13:33.509Z,65.00
2018-11-03T06:16:01.880Z,65.00
2018-11-03T06:18:31.254Z,64.90
2018-11-03T06:20:59.640Z,65.00
2018-11-03T06:23:28.056Z,64.90
2018-11-03T06:25:56.403Z,64.90
2018-11-03T06:28:24.719Z,65.00
2018-11-03T06:30:53.058Z,65.00
2018-11-03T06:33:21.420Z,65.50
2018-11-03T06:35:49.761Z,65.10
2018-11-03T06:38:18.105Z,65.10
2018-11-03T06:40:46.436Z,65.10
2018-11-03T06:43:14.806Z,65.20
2018-11-03T06:45:43.214Z,64.90
2018-11-03T06:48:11.542Z,64.80
2018-11-03T06:50:39.946Z,64.70
2018-11-03T06:53:08.301Z,64.90
2018-11-03T06:55:36.675Z,65.00
2018-11-03T06:58:04.929Z,64.90
2018-11-03T07:00:33.231Z,64.80
2018-11-03T07:03:01.517Z,64.80
2018-11-03T07:05:29.956Z,65.20
2018-11-03T07:07:58.282Z,64.60
2018-11-03T07:10:26.710Z,64.60
2018-11-03T07:12:55.262Z,64.50
2018-11-03T07:15:23.450Z,64.30
2018-11-03T07:17:51.776Z,64.40
2018-11-03T07:20:20.040Z,64.40
2018-11-03T07:22:48.359Z,64.40
2018-11-03T07:25:17.032Z,64.30
2018-11-03T07:27:45.290Z,64.90
2018-11-03T07:30:13.600Z,63.10
2018-11-03T07:32:41.962Z,62.90
2018-11-03T07:35:10.248Z,62.70
2018-11-03T07:37:38.645Z,63.30
2018-11-03T07:40:08.059Z,62.40
2018-11-03T07:42:37.628Z,62.10
2018-11-03T07:45:06.720Z,62.20
2018-11-03T07:47:35.161Z,61.70
2018-11-03T07:50:04.580Z,61.70
2018-11-03T07:52:32.989Z,61.90
2018-11-03T07:55:01.369Z,62.00
2018-11-03T07:57:29.641Z,61.80
2018-11-03T07:59:57.953Z,61.50
2018-11-03T08:02:26.324Z,62.00
2018-11-03T08:04:54.688Z,61.20
2018-11-03T08:07:23.048Z,61.10
2018-11-03T08:09:51.323Z,60.90
2018-11-03T08:12:19.653Z,60.50
2018-11-03T08:14:47.978Z,60.20
2018-11-03T08:17:16.386Z,60.60
2018-11-03T08:19:44.760Z,60.30
2018-11-03T08:22:13.153Z,60.30
2018-11-03T08:24:41.746Z,60.30
2018-11-03T08:27:10.088Z,60.10
2018-11-03T08:29:38.431Z,60.20
2018-11-03T08:32:06.858Z,60.40
2018-11-03T08:34:35.277Z,59.60
2018-11-03T08:37:03.671Z,59.60
2018-11-03T08:39:32.161Z,59.40
2018-11-03T08:42:00.622Z,59.00
2018-11-03T08:44:28.942Z,59.00
2018-11-03T08:46:57.248Z,58.70
2018-11-03T08:49:25.655Z,58.50
2018-11-03T08:51:53.966Z,58.10
2018-11-03T08:54:22.257Z,57.30
2018-11-03T08:56:50.554Z,57.40
2018-11-03T08:59:18.794Z,57.80
2018-11-03T09:01:47.113Z,57.50
2018-11-03T09:04:15.453Z,57.60
2018-11-03T09:06:43.749Z,57.20
2018-11-03T09:09:12.102Z,57.70
2018-11-03T09:11:40.390Z,58.00
2018-11-03T09:14:09.048Z,57.80
2018-11-03T09:16:37.335Z,57.80
2018-11-03T09:19:06.738Z,57.90
2018-11-03T09:21:45.835Z,57.70
2018-11-03T09:24:21.536Z,58.10
2018-11-03T09:26:57.360Z,58.70
2018-11-03T09:29:27.647Z,58.00
2018-11-03T09:31:56.004Z,57.90
2018-11-03T09:34:25.242Z,57.80
2018-11-03T09:36:53.454Z,57.80
2018-11-03T09:39:21.828Z,57.70
2018-11-03T09:41:49.999Z,57.70
2018-11-03T09:44:18.301Z,57.60
2018-11-03T09:46:47.622Z,57.70
2018-11-03T09:49:15.973Z,57.80
2018-11-03T09:51:44.274Z,57.30
2018-11-03T09:54:12.611Z,57.20
2018-11-03T09:56:40.970Z,57.20
2018-11-03T09:59:09.163Z,57.00
2018-11-03T10:01:48.297Z,57.20
2018-11-03T10:04:17.652Z,57.00
2018-11-03T10:06:50.862Z,56.70
2018-11-03T10:09:28.836Z,57.00
2018-11-03T10:11:57.208Z,57.00
2018-11-03T10:14:25.618Z,57.20
2018-11-03T10:16:57.968Z,57.00
2018-11-03T10:19:28.312Z,57.00
2018-11-03T10:21:56.657Z,57.00
2018-11-03T10:24:26.998Z,56.80
2018-11-03T10:26:55.384Z,56.90
2018-11-03T10:29:33.430Z,56.70
2018-11-03T10:32:02.293Z,56.90
2018-11-03T10:34:30.647Z,57.20
2018-11-03T10:36:59.067Z,57.00
2018-11-03T10:39:31.444Z,57.00
2018-11-03T10:41:59.752Z,57.00
2018-11-03T10:44:28.037Z,56.80
2018-11-03T10:46:56.314Z,56.80
2018-11-03T10:49:24.707Z,56.70
2018-11-03T10:51:53.093Z,56.80
2018-11-03T10:54:21.462Z,56.90
2018-11-03T10:56:49.839Z,56.60
2018-11-03T10:59:18.440Z,56.50
2018-11-03T11:01:51.999Z,56.00
2018-11-03T11:04:25.693Z,56.40
2018-11-03T11:07:00.529Z,56.60
2018-11-03T11:09:34.210Z,56.30
2018-11-03T11:12:08.443Z,56.20
2018-11-03T11:14:36.784Z,55.90
2018-11-03T11:17:05.340Z,56.00
2018-11-03T11:19:34.533Z,55.90
2018-11-03T11:22:02.913Z,55.70
2018-11-03T11:24:31.281Z,56.00
2018-11-03T11:26:59.572Z,55.60
2018-11-03T11:29:27.820Z,55.40
2018-11-03T11:31:56.132Z,55.40
2018-11-03T11:34:24.507Z,55.50
2018-11-03T11:36:53.838Z,55.90
2018-11-03T11:39:22.270Z,55.50
2018-11-03T11:41:50.570Z,55.50
2018-11-03T11:44:18.986Z,55.30
2018-11-03T11:46:47.355Z,55.00
2018-11-03T11:49:15.734Z,55.20
2018-11-03T11:51:44.088Z,55.10
2018-11-03T11:54:12.432Z,55.20
2018-11-03T11:56:40.740Z,55.40
2018-11-03T11:59:09.117Z,55.30
2018-11-03T12:01:37.841Z,55.00
2018-11-03T12:04:06.434Z,55.00
2018-11-03T12:06:34.741Z,54.80
2018-11-03T12:09:03.117Z,55.10
2018-11-03T12:11:31.409Z,55.00
2018-11-03T12:13:59.815Z,54.80
2018-11-03T12:16:28.148Z,55.10
2018-11-03T12:18:56.494Z,55.00
2018-11-03T12:21:25.105Z,55.00
2018-11-03T12:23:53.475Z,54.90
2018-11-03T12:26:21.801Z,54.90
2018-11-03T12:28:50.229Z,54.70
2018-11-03T12:31:18.542Z,54.90
2018-11-03T12:33:46.826Z,54.70
2018-11-03T12:36:15.186Z,54.80
2018-11-03T12:38:44.493Z,54.80
2018-11-03T12:41:12.784Z,54.80
2018-11-03T12:43:41.077Z,54.50
2018-11-03T12:46:09.485Z,54.60
2018-11-03T12:48:37.900Z,54.70
2018-11-03T12:51:06.178Z,54.70
2018-11-03T12:53:37.448Z,54.70
2018-11-03T12:56:05.871Z,54.60
2018-11-03T12:58:35.239Z,54.40
2018-11-03T13:01:03.615Z,54.30
2018-11-03T13:03:31.984Z,54.40
2018-11-03T13:06:00.356Z,54.70
2018-11-03T13:08:28.657Z,54.70
2018-11-03T13:10:56.961Z,54.70
2018-11-03T13:13:25.293Z,55.00
2018-11-03T13:15:53.589Z,54.80
2018-11-03T13:18:28.709Z,54.60
2018-11-03T13:20:57.055Z,54.80
2018-11-03T13:23:25.347Z,55.00
2018-11-03T13:25:53.679Z,54.50
2018-11-03T13:28:22.032Z,54.80
2018-11-03T13:30:50.411Z,54.60
2018-11-03T13:33:18.768Z,54.80
2018-11-03T13:35:50.939Z,54.90
2018-11-03T13:38:19.237Z,54.50
2018-11-03T13:40:47.654Z,54.50
2018-11-03T13:43:15.980Z,54.90
2018-11-03T13:45:48.256Z,54.40
2018-11-03T13:48:16.670Z,54.80
2018-11-03T13:50:45.027Z,55.00
2018-11-03T13:53:13.407Z,55.00
2018-11-03T13:55:41.953Z,54.90
2018-11-03T13:58:10.288Z,54.60
2018-11-03T14:00:38.617Z,54.70
2018-11-03T14:03:07.944Z,54.90
2018-11-03T14:05:36.301Z,55.00
2018-11-03T14:08:05.984Z,54.90
2018-11-03T14:10:34.304Z,54.80
2018-11-03T14:13:18.131Z,54.80
2018-11-03T14:15:48.447Z,54.80
2018-11-03T14:18:18.783Z,55.00
2018-11-03T14:20:49.105Z,55.20
2018-11-03T14:23:24.018Z,55.20
2018-11-03T14:25:53.350Z,55.10
2018-11-03T14:28:21.618Z,55.30
2018-11-03T14:30:49.954Z,55.30
2018-11-03T14:33:18.336Z,55.40
2018-11-03T14:35:46.629Z,55.30
2018-11-03T14:38:14.944Z,55.50
2018-11-03T14:40:43.310Z,55.50
2018-11-03T14:43:11.609Z,55.70
2018-11-03T14:45:39.989Z,55.70
2018-11-03T14:48:08.402Z,55.80
2018-11-03T14:50:36.773Z,55.80
2018-11-03T14:53:05.120Z,55.90
2018-11-03T14:55:35.440Z,55.90
2018-11-03T14:58:08.818Z,56.00
2018-11-03T15:00:38.445Z,56.00
2018-11-03T15:03:07.565Z,56.10
2018-11-03T15:05:35.919Z,56.20
2018-11-03T15:08:04.377Z,56.20
2018-11-03T15:10:32.694Z,56.30
2018-11-03T15:13:01.061Z,56.50
2018-11-03T15:15:29.421Z,56.50
2018-11-03T15:17:57.713Z,56.50
2018-11-03T15:20:27.001Z,56.60
2018-11-03T15:22:55.278Z,56.60
2018-11-03T15:25:24.623Z,56.60
2018-11-03T15:27:53.053Z,56.70
2018-11-03T15:30:21.344Z,56.60
2018-11-03T15:32:49.777Z,56.80
2018-11-03T15:35:18.109Z,56.80
2018-11-03T15:37:46.550Z,56.80
2018-11-03T15:40:15.827Z,57.00
2018-11-03T15:42:44.758Z,56.90
2018-11-03T15:45:14.418Z,57.00
2018-11-03T15:47:43.260Z,57.00
2018-11-03T15:50:12.351Z,57.00
2018-11-03T15:52:40.738Z,57.00
2018-11-03T15:55:09.115Z,57.10
2018-11-03T15:57:37.505Z,57.30
2018-11-03T16:00:09.999Z,57.30
2018-11-03T16:02:39.341Z,57.80
2018-11-03T16:05:07.696Z,57.30
2018-11-03T16:07:35.980Z,57.40
2018-11-03T16:10:05.078Z,57.40
2018-11-03T16:12:33.396Z,57.60
2018-11-03T16:15:01.688Z,57.60
2018-11-03T16:17:30.053Z,57.60
2018-11-03T16:19:58.418Z,57.70
2018-11-03T16:22:27.329Z,57.70
2018-11-03T16:24:55.691Z,57.60
2018-11-03T16:27:24.030Z,57.80
2018-11-03T16:29:52.725Z,57.80
2018-11-03T16:32:21.180Z,57.80
2018-11-03T16:34:49.356Z,57.80
2018-11-03T16:37:17.649Z,57.70
2018-11-03T16:39:45.948Z,57.80
2018-11-03T16:42:14.237Z,57.70
2018-11-03T16:44:42.638Z,57.80
2018-11-03T16:47:10.906Z,57.70
2018-11-03T16:49:39.193Z,57.70
2018-11-03T16:52:07.485Z,57.70
2018-11-03T16:54:35.789Z,57.30
2018-11-03T16:57:04.176Z,58.00
2018-11-03T16:59:32.470Z,57.90
2018-11-03T17:02:00.773Z,57.90
2018-11-03T17:04:29.106Z,58.00
2018-11-03T17:06:57.541Z,58.00
2018-11-03T17:09:26.047Z,58.00
2018-11-03T17:11:57.157Z,58.00
2018-11-03T17:14:25.919Z,58.10
2018-11-03T17:16:54.225Z,58.10
2018-11-03T17:19:22.586Z,58.00
2018-11-03T17:21:50.940Z,58.00
2018-11-03T17:24:19.253Z,58.10
2018-11-03T17:26:47.533Z,58.30
2018-11-03T17:29:15.865Z,58.30
2018-11-03T17:31:44.166Z,58.90
2018-11-03T17:34:12.636Z,58.30
2018-11-03T17:36:40.906Z,58.30
2018-11-03T17:39:10.627Z,58.20
2018-11-03T17:41:38.922Z,58.20
2018-11-03T17:44:07.259Z,58.30
2018-11-03T17:46:35.848Z,58.40
2018-11-03T17:49:04.181Z,58.50
2018-11-03T17:51:32.543Z,58.40
2018-11-03T17:54:00.973Z,59.30
2018-11-03T17:56:29.255Z,58.70
2018-11-03T17:58:57.530Z,58.80
2018-11-03T18:01:25.934Z,58.80
2018-11-03T18:03:54.145Z,58.90
2018-11-03T18:06:22.478Z,59.00
2018-11-03T18:08:50.753Z,59.00
2018-11-03T18:11:19.035Z,58.90
2018-11-03T18:13:48.262Z,58.90
2018-11-03T18:16:16.612Z,58.90
2018-11-03T18:18:45.025Z,59.00
2018-11-03T18:21:13.347Z,59.10
2018-11-03T18:23:45.441Z,59.10
2018-11-03T18:26:13.881Z,59.20
2018-11-03T18:28:42.031Z,59.10
2018-11-03T18:31:10.312Z,59.20
2018-11-03T18:33:38.683Z,59.20
2018-11-03T18:36:06.969Z,59.90
2018-11-03T18:38:35.278Z,59.30
2018-11-03T18:41:03.577Z,59.90
2018-11-03T18:43:31.977Z,59.40
2018-11-03T18:46:00.258Z,59.30
2018-11-03T18:48:28.538Z,59.40
2018-11-03T18:50:56.845Z,59.30
2018-11-03T18:53:25.105Z,59.30
2018-11-03T18:55:53.396Z,59.40
2018-11-03T18:58:21.660Z,59.50
2018-11-03T19:00:49.988Z,59.40
2018-11-03T19:03:18.278Z,59.40
2018-11-03T19:05:46.577Z,59.40
2018-11-03T19:08:14.877Z,59.60
2018-11-03T19:10:44.133Z,59.60
2018-11-03T19:13:12.489Z,59.70
2018-11-03T19:15:40.883Z,59.50
2018-11-03T19:18:09.149Z,59.60
2018-11-03T19:20:37.467Z,59.50
2018-11-03T19:23:05.802Z,59.50
2018-11-03T19:25:34.089Z,59.70
2018-11-03T19:28:02.420Z,59.70
2018-11-03T19:30:30.730Z,59.80
2018-11-03T19:32:58.986Z,59.80
2018-11-03T19:35:27.261Z,59.70
2018-11-03T19:37:55.561Z,59.70
2018-11-03T19:40:23.838Z,59.80
2018-11-03T19:42:52.092Z,59.90
2018-11-03T19:45:20.440Z,59.80
2018-11-03T19:47:48.733Z,60.00
2018-11-03T19:50:17.036Z,59.90
2018-11-03T19:52:45.313Z,60.00
2018-11-03T19:55:13.557Z,60.10
2018-11-03T19:57:41.875Z,60.00
2018-11-03T20:00:12.807Z,60.20
2018-11-03T20:02:41.147Z,60.10
2018-11-03T20:05:10.229Z,60.20
2018-11-03T20:07:38.605Z,60.30
2018-11-03T20:10:06.962Z,60.30
2018-11-03T20:12:35.231Z,60.30
2018-11-03T20:15:05.296Z,60.30
2018-11-03T20:17:36.753Z,60.50
2018-11-03T20:20:15.900Z,60.40
2018-11-03T20:22:44.328Z,60.50
2018-11-03T20:25:30.047Z,60.50
2018-11-03T20:28:03.518Z,60.50
2018-11-03T20:30:33.989Z,60.50
2018-11-03T20:33:04.883Z,60.60
2018-11-03T20:35:33.178Z,60.60
2018-11-03T20:38:01.449Z,60.60
2018-11-03T20:40:35.181Z,60.50
2018-11-03T20:43:03.461Z,60.70
2018-11-03T20:45:31.709Z,60.80
2018-11-03T20:48:00.017Z,60.80
2018-11-03T20:50:28.308Z,60.80
2018-11-03T20:52:56.606Z,60.90
2018-11-03T20:55:24.919Z,60.90
2018-11-03T20:57:53.204Z,60.90
2018-11-03T21:00:21.480Z,60.80
2018-11-03T21:02:49.758Z,61.60
2018-11-03T21:05:18.040Z,61.10
2018-11-03T21:07:46.321Z,61.00
2018-11-03T21:10:14.583Z,60.90
2018-11-03T21:12:42.867Z,60.90
2018-11-03T21:15:11.129Z,61.00
2018-11-03T21:17:39.484Z,61.00
2018-11-03T21:20:08.439Z,60.90
2018-11-03T21:22:36.784Z,61.20
2018-11-03T21:25:05.381Z,61.20
2018-11-03T21:27:33.685Z,61.20
2018-11-03T21:30:02.154Z,61.30
2018-11-03T21:32:30.529Z,61.50
2018-11-03T21:34:58.788Z,61.80
2018-11-03T21:40:02.624Z,61.80
2018-11-03T21:42:31.965Z,62.00
2018-11-03T21:45:01.220Z,62.30
2018-11-03T21:47:29.515Z,62.40
2018-11-03T21:49:57.867Z,62.40
2018-11-03T21:52:26.143Z,62.50
2018-11-03T21:54:54.444Z,62.50
2018-11-03T21:57:22.800Z,62.40
2018-11-03T21:59:51.070Z,62.70
2018-11-03T22:02:19.371Z,62.60
2018-11-03T22:04:47.906Z,62.80
2018-11-03T22:07:16.264Z,62.90
2018-11-03T22:09:44.547Z,62.80
2018-11-03T22:12:12.976Z,63.10
2018-11-03T22:14:41.375Z,63.30
2018-11-03T22:17:09.785Z,63.30
2018-11-03T22:19:38.081Z,63.50
2018-11-03T22:22:06.382Z,63.70
2018-11-03T22:24:34.710Z,63.70
2018-11-03T22:27:03.169Z,63.60
2018-11-03T22:29:31.470Z,63.60
2018-11-03T22:31:59.745Z,63.70
2018-11-03T22:34:28.079Z,64.00
2018-11-03T22:36:56.346Z,63.90
2018-11-03T22:39:24.640Z,64.60
2018-11-03T22:41:52.948Z,63.70
2018-11-03T22:44:21.224Z,63.80
2018-11-03T22:46:49.517Z,64.00
2018-11-03T22:49:17.803Z,64.20
2018-11-03T22:51:46.093Z,64.30
2018-11-03T22:54:14.396Z,64.20
2018-11-03T22:56:42.682Z,64.30
2018-11-03T22:59:10.979Z,64.30
2018-11-03T23:01:39.277Z,64.80
2018-11-03T23:04:07.679Z,64.30
2018-11-03T23:06:35.959Z,64.40
2018-11-03T23:09:05.328Z,64.50
2018-11-03T23:11:33.604Z,64.70
2018-11-03T23:14:01.912Z,65.20
2018-11-03T23:16:30.263Z,64.60
2018-11-03T23:19:02.404Z,64.90
2018-11-03T23:21:34.666Z,64.80
2018-11-03T23:24:08.008Z,64.80
2018-11-03T23:26:38.451Z,64.90
2018-11-03T23:29:08.897Z,64.80
2018-11-03T23:31:37.233Z,64.90
2018-11-03T23:34:05.810Z,65.10
2018-11-03T23:36:34.176Z,65.00
2018-11-03T23:39:02.708Z,65.10
2018-11-03T23:41:31.009Z,65.10
2018-11-03T23:44:01.990Z,64.80
2018-11-03T23:46:30.320Z,64.80
2018-11-03T23:48:58.668Z,64.90
2018-11-03T23:51:26.932Z,64.80
2018-11-03T23:53:55.201Z,64.80
2018-11-03T23:56:23.495Z,64.60
2018-11-03T23:58:51.809Z,64.60
